sensor_id;sensor_type;location;lat;lon;timestamp;temperature;humidity
65408;DHT22;52017;51.230;-2.322;2022-08-19T00:01:16;21.60;74.20
65408;DHT22;52017;51.230;-2.322;2022-08-19T00:05:12;21.60;74.30
65408;DHT22;52017;51.230;-2.322;2022-08-19T00:08:55;21.60;74.10
65408;DHT22;52017;51.230;-2.322;2022-08-19T00:12:37;21.60;74.20
65408;DHT22;52017;51.230;-2.322;2022-08-19T00:16:27;21.60;74.30
65408;DHT22;52017;51.230;-2.322;2022-08-19T00:20:12;21.60;74.30
65408;DHT22;52017;51.230;-2.322;2022-08-19T00:23:55;21.50;74.60
65408;DHT22;52017;51.230;-2.322;2022-08-19T00:27:40;21.50;74.40
65408;DHT22;52017;51.230;-2.322;2022-08-19T00:31:22;21.50;74.60
65408;DHT22;52017;51.230;-2.322;2022-08-19T00:35:05;21.50;74.60
65408;DHT22;52017;51.230;-2.322;2022-08-19T00:38:47;21.50;74.70
65408;DHT22;52017;51.230;-2.322;2022-08-19T00:42:30;21.40;74.90
65408;DHT22;52017;51.230;-2.322;2022-08-19T00:46:12;21.50;74.80
65408;DHT22;52017;51.230;-2.322;2022-08-19T00:49:57;21.50;74.70
65408;DHT22;52017;51.230;-2.322;2022-08-19T00:53:40;21.50;74.70
65408;DHT22;52017;51.230;-2.322;2022-08-19T00:57:35;21.50;74.50
65408;DHT22;52017;51.230;-2.322;2022-08-19T01:01:18;21.50;75.00
65408;DHT22;52017;51.230;-2.322;2022-08-19T01:05:03;21.50;74.40
65408;DHT22;52017;51.230;-2.322;2022-08-19T01:08:46;21.50;74.40
65408;DHT22;52017;51.230;-2.322;2022-08-19T01:12:30;21.50;74.40
65408;DHT22;52017;51.230;-2.322;2022-08-19T01:16:13;21.50;74.30
65408;DHT22;52017;51.230;-2.322;2022-08-19T01:19:56;21.40;74.30
65408;DHT22;52017;51.230;-2.322;2022-08-19T01:23:38;21.30;74.30
65408;DHT22;52017;51.230;-2.322;2022-08-19T01:27:25;21.30;74.30
65408;DHT22;52017;51.230;-2.322;2022-08-19T01:31:26;21.20;74.30
65408;DHT22;52017;51.230;-2.322;2022-08-19T01:35:09;21.10;75.10
65408;DHT22;52017;51.230;-2.322;2022-08-19T01:39:08;21.10;74.50
65408;DHT22;52017;51.230;-2.322;2022-08-19T01:42:52;21.10;75.50
65408;DHT22;52017;51.230;-2.322;2022-08-19T01:46:35;21.10;74.60
65408;DHT22;52017;51.230;-2.322;2022-08-19T01:50:17;21.00;74.70
65408;DHT22;52017;51.230;-2.322;2022-08-19T01:54:01;21.10;74.70
65408;DHT22;52017;51.230;-2.322;2022-08-19T01:57:50;21.10;75.00
65408;DHT22;52017;51.230;-2.322;2022-08-19T02:01:33;21.00;75.80
65408;DHT22;52017;51.230;-2.322;2022-08-19T02:05:17;21.00;75.50
65408;DHT22;52017;51.230;-2.322;2022-08-19T02:09:00;20.90;75.50
65408;DHT22;52017;51.230;-2.322;2022-08-19T02:12:43;20.90;75.70
65408;DHT22;52017;51.230;-2.322;2022-08-19T02:16:25;20.80;75.80
65408;DHT22;52017;51.230;-2.322;2022-08-19T02:20:08;20.80;75.80
65408;DHT22;52017;51.230;-2.322;2022-08-19T02:23:50;20.80;75.80
65408;DHT22;52017;51.230;-2.322;2022-08-19T02:27:32;20.80;75.70
65408;DHT22;52017;51.230;-2.322;2022-08-19T02:31:18;20.80;75.60
65408;DHT22;52017;51.230;-2.322;2022-08-19T02:35:00;20.80;75.50
65408;DHT22;52017;51.230;-2.322;2022-08-19T02:38:53;20.80;75.40
65408;DHT22;52017;51.230;-2.322;2022-08-19T02:42:36;20.70;75.30
65408;DHT22;52017;51.230;-2.322;2022-08-19T02:46:22;20.60;75.50
65408;DHT22;52017;51.230;-2.322;2022-08-19T02:50:05;20.70;75.50
65408;DHT22;52017;51.230;-2.322;2022-08-19T02:53:47;20.70;75.40
65408;DHT22;52017;51.230;-2.322;2022-08-19T02:57:30;20.70;75.20
65408;DHT22;52017;51.230;-2.322;2022-08-19T03:01:26;20.60;75.30
65408;DHT22;52017;51.230;-2.322;2022-08-19T03:05:14;20.60;75.50
65408;DHT22;52017;51.230;-2.322;2022-08-19T03:08:56;20.60;75.50
65408;DHT22;52017;51.230;-2.322;2022-08-19T03:12:39;20.60;75.20
65408;DHT22;52017;51.230;-2.322;2022-08-19T03:16:23;20.50;75.20
65408;DHT22;52017;51.230;-2.322;2022-08-19T03:20:06;20.60;75.20
65408;DHT22;52017;51.230;-2.322;2022-08-19T03:23:49;20.50;75.10
65408;DHT22;52017;51.230;-2.322;2022-08-19T03:27:31;20.50;75.10
65408;DHT22;52017;51.230;-2.322;2022-08-19T03:31:18;20.50;75.00
65408;DHT22;52017;51.230;-2.322;2022-08-19T03:35:20;20.40;75.00
65408;DHT22;52017;51.230;-2.322;2022-08-19T03:39:02;20.40;74.90
65408;DHT22;52017;51.230;-2.322;2022-08-19T03:42:45;20.40;74.90
65408;DHT22;52017;51.230;-2.322;2022-08-19T03:46:32;20.40;74.90
65408;DHT22;52017;51.230;-2.322;2022-08-19T03:50:15;20.40;74.80
65408;DHT22;52017;51.230;-2.322;2022-08-19T03:53:59;20.30;74.70
65408;DHT22;52017;51.230;-2.322;2022-08-19T03:57:41;20.30;74.60
65408;DHT22;52017;51.230;-2.322;2022-08-19T04:01:26;20.30;74.70
65408;DHT22;52017;51.230;-2.322;2022-08-19T04:05:16;20.30;74.60
65408;DHT22;52017;51.230;-2.322;2022-08-19T04:08:59;20.20;74.50
65408;DHT22;52017;51.230;-2.322;2022-08-19T04:12:42;20.20;74.60
65408;DHT22;52017;51.230;-2.322;2022-08-19T04:16:28;20.20;74.50
65408;DHT22;52017;51.230;-2.322;2022-08-19T04:20:15;20.20;74.50
65408;DHT22;52017;51.230;-2.322;2022-08-19T04:23:58;20.20;74.40
65408;DHT22;52017;51.230;-2.322;2022-08-19T04:27:39;20.20;74.40
65408;DHT22;52017;51.230;-2.322;2022-08-19T04:31:26;20.30;74.30
65408;DHT22;52017;51.230;-2.322;2022-08-19T04:35:09;20.20;74.20
65408;DHT22;52017;51.230;-2.322;2022-08-19T04:39:04;20.20;74.00
65408;DHT22;52017;51.230;-2.322;2022-08-19T04:42:46;20.20;73.90
65408;DHT22;52017;51.230;-2.322;2022-08-19T04:46:29;20.20;73.80
65408;DHT22;52017;51.230;-2.322;2022-08-19T04:50:31;20.20;73.70
65408;DHT22;52017;51.230;-2.322;2022-08-19T04:54:14;20.20;73.50
65408;DHT22;52017;51.230;-2.322;2022-08-19T04:58:16;20.20;73.40
65408;DHT22;52017;51.230;-2.322;2022-08-19T05:01:59;20.10;72.90
65408;DHT22;52017;51.230;-2.322;2022-08-19T05:05:41;20.10;72.80
65408;DHT22;52017;51.230;-2.322;2022-08-19T05:09:26;20.10;72.70
65408;DHT22;52017;51.230;-2.322;2022-08-19T05:13:08;20.00;72.50
65408;DHT22;52017;51.230;-2.322;2022-08-19T05:16:51;20.00;72.50
65408;DHT22;52017;51.230;-2.322;2022-08-19T05:20:53;20.00;72.50
65408;DHT22;52017;51.230;-2.322;2022-08-19T05:24:53;19.90;72.40
65408;DHT22;52017;51.230;-2.322;2022-08-19T05:28:54;19.90;72.40
65408;DHT22;52017;51.230;-2.322;2022-08-19T05:32:37;19.90;72.30
65408;DHT22;52017;51.230;-2.322;2022-08-19T05:36:19;19.80;72.30
65408;DHT22;52017;51.230;-2.322;2022-08-19T05:40:03;19.80;72.20
65408;DHT22;52017;51.230;-2.322;2022-08-19T05:43:46;19.80;72.20
65408;DHT22;52017;51.230;-2.322;2022-08-19T05:47:28;19.70;72.20
65408;DHT22;52017;51.230;-2.322;2022-08-19T05:51:10;19.70;72.30
65408;DHT22;52017;51.230;-2.322;2022-08-19T05:54:53;19.70;72.30
65408;DHT22;52017;51.230;-2.322;2022-08-19T05:58:38;19.60;72.30
65408;DHT22;52017;51.230;-2.322;2022-08-19T06:02:20;19.60;72.40
65408;DHT22;52017;51.230;-2.322;2022-08-19T06:06:05;19.60;72.40
65408;DHT22;52017;51.230;-2.322;2022-08-19T06:09:49;19.70;72.50
65408;DHT22;52017;51.230;-2.322;2022-08-19T06:13:41;19.70;72.40
65408;DHT22;52017;51.230;-2.322;2022-08-19T06:17:23;19.80;72.60
65408;DHT22;52017;51.230;-2.322;2022-08-19T06:21:07;20.00;72.60
65408;DHT22;52017;51.230;-2.322;2022-08-19T06:24:49;20.30;72.20
65408;DHT22;52017;51.230;-2.322;2022-08-19T06:28:34;20.50;71.40
65408;DHT22;52017;51.230;-2.322;2022-08-19T06:32:17;20.60;70.90
65408;DHT22;52017;51.230;-2.322;2022-08-19T06:36:00;20.90;70.60
65408;DHT22;52017;51.230;-2.322;2022-08-19T06:39:44;21.30;69.50
65408;DHT22;52017;51.230;-2.322;2022-08-19T06:43:26;21.70;68.90
65408;DHT22;52017;51.230;-2.322;2022-08-19T06:47:12;22.00;68.20
65408;DHT22;52017;51.230;-2.322;2022-08-19T06:51:09;22.10;67.50
65408;DHT22;52017;51.230;-2.322;2022-08-19T06:54:51;22.30;66.90
65408;DHT22;52017;51.230;-2.322;2022-08-19T06:58:37;22.60;66.40
65408;DHT22;52017;51.230;-2.322;2022-08-19T07:02:20;22.90;65.60
65408;DHT22;52017;51.230;-2.322;2022-08-19T07:06:11;23.20;64.70
65408;DHT22;52017;51.230;-2.322;2022-08-19T07:10:14;23.60;61.60
65408;DHT22;52017;51.230;-2.322;2022-08-19T07:13:59;23.90;62.60
65408;DHT22;52017;51.230;-2.322;2022-08-19T07:17:44;23.90;61.40
65408;DHT22;52017;51.230;-2.322;2022-08-19T07:21:30;23.70;61.00
65408;DHT22;52017;51.230;-2.322;2022-08-19T07:25:18;23.50;59.20
65408;DHT22;52017;51.230;-2.322;2022-08-19T07:29:13;23.30;59.40
65408;DHT22;52017;51.230;-2.322;2022-08-19T07:33:00;23.30;58.90
65408;DHT22;52017;51.230;-2.322;2022-08-19T07:36:44;23.40;58.40
65408;DHT22;52017;51.230;-2.322;2022-08-19T07:40:27;23.60;57.60
65408;DHT22;52017;51.230;-2.322;2022-08-19T07:44:13;23.90;56.30
65408;DHT22;52017;51.230;-2.322;2022-08-19T07:48:08;24.10;55.60
65408;DHT22;52017;51.230;-2.322;2022-08-19T07:52:06;24.80;51.00
65408;DHT22;52017;51.230;-2.322;2022-08-19T07:55:53;25.30;51.60
65408;DHT22;52017;51.230;-2.322;2022-08-19T07:59:35;25.70;51.50
65408;DHT22;52017;51.230;-2.322;2022-08-19T08:03:21;26.20;49.50
65408;DHT22;52017;51.230;-2.322;2022-08-19T08:07:25;26.70;48.50
65408;DHT22;52017;51.230;-2.322;2022-08-19T08:11:31;27.30;47.00
65408;DHT22;52017;51.230;-2.322;2022-08-19T08:15:22;27.70;45.90
65408;DHT22;52017;51.230;-2.322;2022-08-19T08:19:13;28.10;44.90
65408;DHT22;52017;51.230;-2.322;2022-08-19T08:23:06;28.50;43.10
65408;DHT22;52017;51.230;-2.322;2022-08-19T08:27:09;28.80;43.10
65408;DHT22;52017;51.230;-2.322;2022-08-19T08:30:53;29.10;42.50
65408;DHT22;52017;51.230;-2.322;2022-08-19T08:34:36;29.50;41.60
65408;DHT22;52017;51.230;-2.322;2022-08-19T08:38:19;29.90;39.90
65408;DHT22;52017;51.230;-2.322;2022-08-19T08:42:20;30.10;38.70
65408;DHT22;52017;51.230;-2.322;2022-08-19T08:46:24;30.30;36.50
65408;DHT22;52017;51.230;-2.322;2022-08-19T08:50:34;30.50;36.60
65408;DHT22;52017;51.230;-2.322;2022-08-19T08:54:34;30.60;36.10
65408;DHT22;52017;51.230;-2.322;2022-08-19T08:58:45;30.80;34.90
65408;DHT22;52017;51.230;-2.322;2022-08-19T09:02:35;31.00;34.90
65408;DHT22;52017;51.230;-2.322;2022-08-19T09:10:38;31.70;34.20
65408;DHT22;52017;51.230;-2.322;2022-08-19T09:18:48;32.30;31.30
65408;DHT22;52017;51.230;-2.322;2022-08-19T09:22:31;32.30;32.60
65408;DHT22;52017;51.230;-2.322;2022-08-19T09:26:16;32.60;33.00
65408;DHT22;52017;51.230;-2.322;2022-08-19T09:30:04;32.80;31.00
65408;DHT22;52017;51.230;-2.322;2022-08-19T09:33:47;33.10;30.00
65408;DHT22;52017;51.230;-2.322;2022-08-19T09:37:33;33.20;30.50
65408;DHT22;52017;51.230;-2.322;2022-08-19T09:41:19;33.50;30.30
65408;DHT22;52017;51.230;-2.322;2022-08-19T09:45:02;33.80;29.70
65408;DHT22;52017;51.230;-2.322;2022-08-19T09:48:46;34.10;29.50
65408;DHT22;52017;51.230;-2.322;2022-08-19T09:52:30;34.10;29.00
65408;DHT22;52017;51.230;-2.322;2022-08-19T09:56:13;34.00;29.10
65408;DHT22;52017;51.230;-2.322;2022-08-19T10:00:00;33.70;29.10
65408;DHT22;52017;51.230;-2.322;2022-08-19T10:03:42;33.20;29.20
65408;DHT22;52017;51.230;-2.322;2022-08-19T10:07:25;32.90;29.50
65408;DHT22;52017;51.230;-2.322;2022-08-19T10:11:18;32.80;29.30
65408;DHT22;52017;51.230;-2.322;2022-08-19T10:15:16;32.80;29.30
65408;DHT22;52017;51.230;-2.322;2022-08-19T10:19:10;32.90;29.30
65408;DHT22;52017;51.230;-2.322;2022-08-19T10:22:52;33.10;28.50
65408;DHT22;52017;51.230;-2.322;2022-08-19T10:26:37;33.20;28.70
65408;DHT22;52017;51.230;-2.322;2022-08-19T10:30:20;33.40;28.50
65408;DHT22;52017;51.230;-2.322;2022-08-19T10:34:05;33.60;28.30
65408;DHT22;52017;51.230;-2.322;2022-08-19T10:37:47;33.60;28.70
65408;DHT22;52017;51.230;-2.322;2022-08-19T10:41:40;33.90;28.50
65408;DHT22;52017;51.230;-2.322;2022-08-19T10:45:24;34.30;28.30
65408;DHT22;52017;51.230;-2.322;2022-08-19T10:49:10;34.40;27.70
65408;DHT22;52017;51.230;-2.322;2022-08-19T10:52:52;34.10;27.70
65408;DHT22;52017;51.230;-2.322;2022-08-19T10:56:37;34.20;27.80
65408;DHT22;52017;51.230;-2.322;2022-08-19T11:00:34;34.40;27.80
65408;DHT22;52017;51.230;-2.322;2022-08-19T11:04:19;33.70;28.10
65408;DHT22;52017;51.230;-2.322;2022-08-19T11:08:09;32.80;28.60
65408;DHT22;52017;51.230;-2.322;2022-08-19T11:12:05;31.70;29.80
65408;DHT22;52017;51.230;-2.322;2022-08-19T11:16:00;30.90;30.60
65408;DHT22;52017;51.230;-2.322;2022-08-19T11:19:48;30.30;30.90
65408;DHT22;52017;51.230;-2.322;2022-08-19T11:23:32;30.00;31.80
65408;DHT22;52017;51.230;-2.322;2022-08-19T11:27:15;30.10;32.20
65408;DHT22;52017;51.230;-2.322;2022-08-19T11:30:58;30.80;32.10
65408;DHT22;52017;51.230;-2.322;2022-08-19T11:34:40;31.60;31.50
65408;DHT22;52017;51.230;-2.322;2022-08-19T11:38:22;32.60;30.80
65408;DHT22;52017;51.230;-2.322;2022-08-19T11:42:05;33.30;30.40
65408;DHT22;52017;51.230;-2.322;2022-08-19T11:46:11;34.00;29.50
65408;DHT22;52017;51.230;-2.322;2022-08-19T11:49:53;34.60;28.90
65408;DHT22;52017;51.230;-2.322;2022-08-19T11:53:36;35.30;28.30
65408;DHT22;52017;51.230;-2.322;2022-08-19T11:57:18;35.60;27.60
65408;DHT22;52017;51.230;-2.322;2022-08-19T12:01:04;35.90;27.40
65408;DHT22;52017;51.230;-2.322;2022-08-19T12:04:47;36.60;26.90
65408;DHT22;52017;51.230;-2.322;2022-08-19T12:08:34;36.60;26.80
65408;DHT22;52017;51.230;-2.322;2022-08-19T12:12:16;36.20;26.80
65408;DHT22;52017;51.230;-2.322;2022-08-19T12:15:58;36.10;26.70
65408;DHT22;52017;51.230;-2.322;2022-08-19T12:19:41;36.10;26.60
65408;DHT22;52017;51.230;-2.322;2022-08-19T12:23:23;35.60;26.60
65408;DHT22;52017;51.230;-2.322;2022-08-19T12:27:05;35.20;26.70
65408;DHT22;52017;51.230;-2.322;2022-08-19T12:30:53;35.20;26.80
65408;DHT22;52017;51.230;-2.322;2022-08-19T12:34:38;35.60;26.30
65408;DHT22;52017;51.230;-2.322;2022-08-19T12:38:21;36.10;27.10
65408;DHT22;52017;51.230;-2.322;2022-08-19T12:42:06;36.60;25.60
65408;DHT22;52017;51.230;-2.322;2022-08-19T12:45:50;36.60;25.50
65408;DHT22;52017;51.230;-2.322;2022-08-19T12:49:33;36.40;25.60
65408;DHT22;52017;51.230;-2.322;2022-08-19T12:53:35;36.10;25.50
65408;DHT22;52017;51.230;-2.322;2022-08-19T12:57:20;36.40;25.20
65408;DHT22;52017;51.230;-2.322;2022-08-19T13:01:11;37.20;24.50
65408;DHT22;52017;51.230;-2.322;2022-08-19T13:04:54;37.10;24.00
65408;DHT22;52017;51.230;-2.322;2022-08-19T13:08:36;36.60;24.60
65408;DHT22;52017;51.230;-2.322;2022-08-19T13:12:19;36.60;24.00
65408;DHT22;52017;51.230;-2.322;2022-08-19T13:16:11;37.10;25.10
65408;DHT22;52017;51.230;-2.322;2022-08-19T13:19:57;37.90;23.20
65408;DHT22;52017;51.230;-2.322;2022-08-19T13:23:40;38.30;22.30
65408;DHT22;52017;51.230;-2.322;2022-08-19T13:27:22;38.10;22.70
65408;DHT22;52017;51.230;-2.322;2022-08-19T13:31:04;38.60;22.90
65408;DHT22;52017;51.230;-2.322;2022-08-19T13:35:05;38.90;22.50
65408;DHT22;52017;51.230;-2.322;2022-08-19T13:38:47;38.20;23.00
65408;DHT22;52017;51.230;-2.322;2022-08-19T13:42:29;37.80;23.30
65408;DHT22;52017;51.230;-2.322;2022-08-19T13:46:13;38.10;23.00
65408;DHT22;52017;51.230;-2.322;2022-08-19T13:49:55;38.30;22.90
65408;DHT22;52017;51.230;-2.322;2022-08-19T13:53:38;38.00;22.90
65408;DHT22;52017;51.230;-2.322;2022-08-19T13:57:21;37.20;23.20
65408;DHT22;52017;51.230;-2.322;2022-08-19T14:01:04;36.60;23.60
65408;DHT22;52017;51.230;-2.322;2022-08-19T14:04:47;35.60;24.40
65408;DHT22;52017;51.230;-2.322;2022-08-19T14:08:29;34.30;25.20
65408;DHT22;52017;51.230;-2.322;2022-08-19T14:12:13;32.90;26.30
65408;DHT22;52017;51.230;-2.322;2022-08-19T14:16:10;31.80;27.40
65408;DHT22;52017;51.230;-2.322;2022-08-19T14:20:04;31.00;28.30
65408;DHT22;52017;51.230;-2.322;2022-08-19T14:23:52;30.50;28.70
65408;DHT22;52017;51.230;-2.322;2022-08-19T14:27:35;30.10;29.20
65408;DHT22;52017;51.230;-2.322;2022-08-19T14:31:18;29.60;29.70
65408;DHT22;52017;51.230;-2.322;2022-08-19T14:35:02;29.10;30.20
65408;DHT22;52017;51.230;-2.322;2022-08-19T14:38:45;28.90;30.50
65408;DHT22;52017;51.230;-2.322;2022-08-19T14:42:27;28.50;30.90
65408;DHT22;52017;51.230;-2.322;2022-08-19T14:46:09;28.10;31.40
65408;DHT22;52017;51.230;-2.322;2022-08-19T14:49:52;27.80;31.70
65408;DHT22;52017;51.230;-2.322;2022-08-19T14:53:35;27.70;31.90
65408;DHT22;52017;51.230;-2.322;2022-08-19T14:57:17;27.60;32.20
65408;DHT22;52017;51.230;-2.322;2022-08-19T15:00:59;27.40;32.30
65408;DHT22;52017;51.230;-2.322;2022-08-19T15:04:42;27.20;32.40
65408;DHT22;52017;51.230;-2.322;2022-08-19T15:08:26;27.20;32.60
65408;DHT22;52017;51.230;-2.322;2022-08-19T15:12:08;27.10;32.90
65408;DHT22;52017;51.230;-2.322;2022-08-19T15:15:50;27.10;32.90
65408;DHT22;52017;51.230;-2.322;2022-08-19T15:19:33;26.90;33.10
65408;DHT22;52017;51.230;-2.322;2022-08-19T15:23:18;26.80;33.30
65408;DHT22;52017;51.230;-2.322;2022-08-19T15:27:01;26.70;33.60
65408;DHT22;52017;51.230;-2.322;2022-08-19T15:30:43;26.50;33.90
65408;DHT22;52017;51.230;-2.322;2022-08-19T15:34:25;26.50;33.90
65408;DHT22;52017;51.230;-2.322;2022-08-19T15:38:07;26.40;34.20
65408;DHT22;52017;51.230;-2.322;2022-08-19T15:41:50;26.30;34.30
65408;DHT22;52017;51.230;-2.322;2022-08-19T15:45:32;26.30;34.40
65408;DHT22;52017;51.230;-2.322;2022-08-19T15:49:16;26.40;34.50
65408;DHT22;52017;51.230;-2.322;2022-08-19T15:53:05;26.50;34.50
65408;DHT22;52017;51.230;-2.322;2022-08-19T15:56:49;26.60;34.20
65408;DHT22;52017;51.230;-2.322;2022-08-19T16:00:50;26.60;34.40
65408;DHT22;52017;51.230;-2.322;2022-08-19T16:04:53;26.60;34.50
65408;DHT22;52017;51.230;-2.322;2022-08-19T16:09:00;26.50;34.40
65408;DHT22;52017;51.230;-2.322;2022-08-19T16:12:42;26.30;34.80
65408;DHT22;52017;51.230;-2.322;2022-08-19T16:16:28;26.10;35.00
65408;DHT22;52017;51.230;-2.322;2022-08-19T16:20:14;26.00;35.40
65408;DHT22;52017;51.230;-2.322;2022-08-19T16:24:00;25.90;35.70
65408;DHT22;52017;51.230;-2.322;2022-08-19T16:27:43;25.70;36.00
65408;DHT22;52017;51.230;-2.322;2022-08-19T16:31:45;25.60;36.20
65408;DHT22;52017;51.230;-2.322;2022-08-19T16:35:27;25.50;36.50
65408;DHT22;52017;51.230;-2.322;2022-08-19T16:39:13;25.30;36.70
65408;DHT22;52017;51.230;-2.322;2022-08-19T16:42:55;25.20;37.30
65408;DHT22;52017;51.230;-2.322;2022-08-19T16:46:38;25.20;37.70
65408;DHT22;52017;51.230;-2.322;2022-08-19T16:50:23;25.10;38.00
65408;DHT22;52017;51.230;-2.322;2022-08-19T16:54:25;25.10;38.50
65408;DHT22;52017;51.230;-2.322;2022-08-19T16:58:13;25.00;38.90
65408;DHT22;52017;51.230;-2.322;2022-08-19T17:01:55;25.00;39.20
65408;DHT22;52017;51.230;-2.322;2022-08-19T17:05:43;24.90;39.20
65408;DHT22;52017;51.230;-2.322;2022-08-19T17:09:25;24.80;39.20
65408;DHT22;52017;51.230;-2.322;2022-08-19T17:13:14;24.60;38.90
65408;DHT22;52017;51.230;-2.322;2022-08-19T17:16:56;24.60;38.50
65408;DHT22;52017;51.230;-2.322;2022-08-19T17:20:40;24.50;38.40
65408;DHT22;52017;51.230;-2.322;2022-08-19T17:24:22;24.30;38.40
65408;DHT22;52017;51.230;-2.322;2022-08-19T17:28:09;24.20;38.30
65408;DHT22;52017;51.230;-2.322;2022-08-19T17:31:52;24.20;38.40
65408;DHT22;52017;51.230;-2.322;2022-08-19T17:35:35;24.10;38.50
65408;DHT22;52017;51.230;-2.322;2022-08-19T17:39:17;24.00;38.60
65408;DHT22;52017;51.230;-2.322;2022-08-19T17:43:00;24.00;38.60
65408;DHT22;52017;51.230;-2.322;2022-08-19T17:46:42;23.90;38.70
65408;DHT22;52017;51.230;-2.322;2022-08-19T17:50:26;23.90;38.60
65408;DHT22;52017;51.230;-2.322;2022-08-19T17:54:11;23.80;38.60
65408;DHT22;52017;51.230;-2.322;2022-08-19T17:57:54;23.70;38.60
65408;DHT22;52017;51.230;-2.322;2022-08-19T18:01:37;23.60;38.70
65408;DHT22;52017;51.230;-2.322;2022-08-19T18:05:40;23.50;39.10
65408;DHT22;52017;51.230;-2.322;2022-08-19T18:09:27;23.40;40.00
65408;DHT22;52017;51.230;-2.322;2022-08-19T18:13:22;23.30;40.30
65408;DHT22;52017;51.230;-2.322;2022-08-19T18:17:08;23.30;40.30
65408;DHT22;52017;51.230;-2.322;2022-08-19T18:20:51;23.20;41.00
65408;DHT22;52017;51.230;-2.322;2022-08-19T18:24:37;23.10;40.90
65408;DHT22;52017;51.230;-2.322;2022-08-19T18:28:19;23.00;41.50
65408;DHT22;52017;51.230;-2.322;2022-08-19T18:32:01;23.00;40.90
65408;DHT22;52017;51.230;-2.322;2022-08-19T18:35:45;22.90;41.40
65408;DHT22;52017;51.230;-2.322;2022-08-19T18:39:27;22.90;41.80
65408;DHT22;52017;51.230;-2.322;2022-08-19T18:43:28;22.80;42.00
65408;DHT22;52017;51.230;-2.322;2022-08-19T18:47:28;22.70;42.20
65408;DHT22;52017;51.230;-2.322;2022-08-19T18:51:29;22.60;42.20
65408;DHT22;52017;51.230;-2.322;2022-08-19T18:55:12;22.50;42.50
65408;DHT22;52017;51.230;-2.322;2022-08-19T18:58:58;22.50;42.70
65408;DHT22;52017;51.230;-2.322;2022-08-19T19:02:40;22.50;42.80
65408;DHT22;52017;51.230;-2.322;2022-08-19T19:06:25;22.40;42.90
65408;DHT22;52017;51.230;-2.322;2022-08-19T19:10:08;22.30;43.30
65408;DHT22;52017;51.230;-2.322;2022-08-19T19:13:50;22.30;42.80
65408;DHT22;52017;51.230;-2.322;2022-08-19T19:17:32;22.30;43.10
65408;DHT22;52017;51.230;-2.322;2022-08-19T19:21:14;22.30;43.60
65408;DHT22;52017;51.230;-2.322;2022-08-19T19:24:56;22.30;44.20
65408;DHT22;52017;51.230;-2.322;2022-08-19T19:28:41;22.20;44.70
65408;DHT22;52017;51.230;-2.322;2022-08-19T19:32:29;22.20;45.00
65408;DHT22;52017;51.230;-2.322;2022-08-19T19:36:20;22.20;45.20
65408;DHT22;52017;51.230;-2.322;2022-08-19T19:40:03;22.10;45.60
65408;DHT22;52017;51.230;-2.322;2022-08-19T19:43:45;22.10;45.40
65408;DHT22;52017;51.230;-2.322;2022-08-19T19:47:28;22.10;45.60
65408;DHT22;52017;51.230;-2.322;2022-08-19T19:51:12;22.00;45.70
65408;DHT22;52017;51.230;-2.322;2022-08-19T19:54:54;22.00;45.50
65408;DHT22;52017;51.230;-2.322;2022-08-19T19:58:37;22.00;45.40
65408;DHT22;52017;51.230;-2.322;2022-08-19T20:02:19;22.00;45.40
65408;DHT22;52017;51.230;-2.322;2022-08-19T20:06:02;21.90;45.50
65408;DHT22;52017;51.230;-2.322;2022-08-19T20:09:44;21.90;45.40
65408;DHT22;52017;51.230;-2.322;2022-08-19T20:13:40;21.80;45.50
65408;DHT22;52017;51.230;-2.322;2022-08-19T20:17:22;21.70;45.40
65408;DHT22;52017;51.230;-2.322;2022-08-19T20:21:04;21.60;45.60
65408;DHT22;52017;51.230;-2.322;2022-08-19T20:24:46;21.60;45.70
65408;DHT22;52017;51.230;-2.322;2022-08-19T20:28:29;21.50;45.90
65408;DHT22;52017;51.230;-2.322;2022-08-19T20:32:12;21.40;46.00
65408;DHT22;52017;51.230;-2.322;2022-08-19T20:35:54;21.30;46.20
65408;DHT22;52017;51.230;-2.322;2022-08-19T20:39:36;21.20;46.50
65408;DHT22;52017;51.230;-2.322;2022-08-19T20:43:18;21.10;46.70
65408;DHT22;52017;51.230;-2.322;2022-08-19T20:47:01;21.00;47.00
65408;DHT22;52017;51.230;-2.322;2022-08-19T20:50:44;20.90;47.30
65408;DHT22;52017;51.230;-2.322;2022-08-19T20:54:28;20.80;47.60
65408;DHT22;52017;51.230;-2.322;2022-08-19T20:58:10;20.60;48.00
65408;DHT22;52017;51.230;-2.322;2022-08-19T21:01:54;20.50;48.40
65408;DHT22;52017;51.230;-2.322;2022-08-19T21:05:36;20.40;48.60
65408;DHT22;52017;51.230;-2.322;2022-08-19T21:09:18;20.30;49.00
65408;DHT22;52017;51.230;-2.322;2022-08-19T21:13:00;20.30;49.20
65408;DHT22;52017;51.230;-2.322;2022-08-19T21:16:44;20.30;49.40
65408;DHT22;52017;51.230;-2.322;2022-08-19T21:20:27;20.30;49.50
65408;DHT22;52017;51.230;-2.322;2022-08-19T21:24:09;20.30;49.70
65408;DHT22;52017;51.230;-2.322;2022-08-19T21:27:51;20.30;49.80
65408;DHT22;52017;51.230;-2.322;2022-08-19T21:31:33;20.30;50.10
65408;DHT22;52017;51.230;-2.322;2022-08-19T21:35:15;20.20;50.40
65408;DHT22;52017;51.230;-2.322;2022-08-19T21:38:57;20.10;50.50
65408;DHT22;52017;51.230;-2.322;2022-08-19T21:42:39;20.10;50.70
65408;DHT22;52017;51.230;-2.322;2022-08-19T21:46:21;20.00;50.80
65408;DHT22;52017;51.230;-2.322;2022-08-19T21:50:04;20.00;50.90
65408;DHT22;52017;51.230;-2.322;2022-08-19T21:53:46;20.00;51.20
65408;DHT22;52017;51.230;-2.322;2022-08-19T21:57:29;19.90;51.30
65408;DHT22;52017;51.230;-2.322;2022-08-19T22:01:11;19.90;51.40
65408;DHT22;52017;51.230;-2.322;2022-08-19T22:04:53;19.90;51.50
65408;DHT22;52017;51.230;-2.322;2022-08-19T22:08:35;19.80;51.60
65408;DHT22;52017;51.230;-2.322;2022-08-19T22:12:32;19.80;51.70
65408;DHT22;52017;51.230;-2.322;2022-08-19T22:16:14;19.70;52.50
65408;DHT22;52017;51.230;-2.322;2022-08-19T22:19:59;19.70;52.00
65408;DHT22;52017;51.230;-2.322;2022-08-19T22:23:42;19.60;52.10
65408;DHT22;52017;51.230;-2.322;2022-08-19T22:27:25;19.60;52.10
65408;DHT22;52017;51.230;-2.322;2022-08-19T22:31:08;19.60;52.30
65408;DHT22;52017;51.230;-2.322;2022-08-19T22:34:50;19.50;52.50
65408;DHT22;52017;51.230;-2.322;2022-08-19T22:38:33;19.50;52.70
65408;DHT22;52017;51.230;-2.322;2022-08-19T22:42:19;19.50;52.80
65408;DHT22;52017;51.230;-2.322;2022-08-19T22:46:01;19.50;53.30
65408;DHT22;52017;51.230;-2.322;2022-08-19T22:49:44;19.50;52.90
65408;DHT22;52017;51.230;-2.322;2022-08-19T22:53:26;19.50;53.00
65408;DHT22;52017;51.230;-2.322;2022-08-19T22:57:08;19.50;53.00
65408;DHT22;52017;51.230;-2.322;2022-08-19T23:00:51;19.40;53.20
65408;DHT22;52017;51.230;-2.322;2022-08-19T23:04:34;19.30;53.40
65408;DHT22;52017;51.230;-2.322;2022-08-19T23:08:16;19.20;53.60
65408;DHT22;52017;51.230;-2.322;2022-08-19T23:11:58;19.10;53.80
65408;DHT22;52017;51.230;-2.322;2022-08-19T23:15:41;19.00;54.00
65408;DHT22;52017;51.230;-2.322;2022-08-19T23:19:24;19.00;54.20
65408;DHT22;52017;51.230;-2.322;2022-08-19T23:23:10;18.90;54.30
65408;DHT22;52017;51.230;-2.322;2022-08-19T23:26:52;18.80;54.70
65408;DHT22;52017;51.230;-2.322;2022-08-19T23:30:54;18.70;54.80